RJNO(METAR)
05/27 16:00
RJNO 270700Z 26005KT 9999 FEW040 BKNXXX 24/12 Q1010 RMK A2984=
戻る
トップページへ戻る
IMOC Co,.Ltd.